createdAt,value
2023-06-17T00:00:29.657Z,17.85
2023-06-17T00:03:31.684Z,17.76
2023-06-17T00:06:33.949Z,17.72
2023-06-17T00:09:36.887Z,17.77
2023-06-17T00:12:39.486Z,17.83
2023-06-17T00:15:43.668Z,17.78
2023-06-17T00:18:49.515Z,17.81
2023-06-17T00:21:54.053Z,17.79
2023-06-17T00:24:56.251Z,17.71
2023-06-17T00:27:58.655Z,17.74
2023-06-17T00:31:00.812Z,17.71
2023-06-17T00:34:02.749Z,17.76
2023-06-17T00:37:06.184Z,17.76
2023-06-17T00:40:11.611Z,17.73
2023-06-17T00:43:14.440Z,17.65
2023-06-17T00:46:41.202Z,17.66
2023-06-17T00:49:47.394Z,17.71
2023-06-17T00:52:53.729Z,17.69
2023-06-17T00:55:55.991Z,17.63
2023-06-17T00:59:01.885Z,17.56
2023-06-17T01:02:04.696Z,17.63
2023-06-17T01:05:13.910Z,17.59
2023-06-17T01:08:54.762Z,17.54
2023-06-17T01:11:58.860Z,17.51
2023-06-17T01:15:02.998Z,17.50
2023-06-17T01:18:08.482Z,17.34
2023-06-17T01:21:10.905Z,17.32
2023-06-17T01:24:15.050Z,17.32
2023-06-17T01:27:20.231Z,17.37
2023-06-17T01:30:23.413Z,17.35
2023-06-17T01:33:26.589Z,17.36
2023-06-17T01:36:38.197Z,17.37
2023-06-17T01:39:46.079Z,17.40
2023-06-17T01:42:54.115Z,17.38
2023-06-17T01:45:57.929Z,17.26
2023-06-17T01:49:00.561Z,17.10
2023-06-17T01:52:04.259Z,17.05
2023-06-17T01:55:07.758Z,16.98
2023-06-17T01:58:10.161Z,16.98
2023-06-17T02:01:13.733Z,16.90
2023-06-17T02:04:16.148Z,16.84
2023-06-17T02:07:19.325Z,16.73
2023-06-17T02:10:23.906Z,16.82
2023-06-17T02:13:26.346Z,16.79
2023-06-17T02:16:28.639Z,16.80
2023-06-17T02:19:35.587Z,16.86
2023-06-17T02:22:37.973Z,16.78
2023-06-17T02:25:41.236Z,16.81
2023-06-17T02:28:45.011Z,16.81
2023-06-17T02:31:47.478Z,16.72
2023-06-17T02:34:50.785Z,16.71
2023-06-17T02:37:55.634Z,16.73
2023-06-17T02:40:58.018Z,16.72
2023-06-17T02:44:00.425Z,16.76
2023-06-17T02:47:04.575Z,16.75
2023-06-17T02:50:08.067Z,16.78
2023-06-17T02:53:10.239Z,16.71
2023-06-17T02:56:12.535Z,16.67
2023-06-17T02:59:16.387Z,16.63
2023-06-17T03:02:20.812Z,16.66
2023-06-17T03:05:25.816Z,16.72
2023-06-17T03:08:30.056Z,16.84
2023-06-17T03:11:32.105Z,16.84
2023-06-17T03:14:34.844Z,16.76
2023-06-17T03:17:39.386Z,16.65
2023-06-17T03:20:44.359Z,16.71
2023-06-17T03:23:47.112Z,16.78
2023-06-17T03:26:49.379Z,16.78
2023-06-17T03:29:51.534Z,16.61
2023-06-17T03:32:54.817Z,16.67
2023-06-17T03:35:58.335Z,16.69
2023-06-17T03:39:00.380Z,16.68
2023-06-17T03:42:02.332Z,16.75
2023-06-17T03:45:06.332Z,16.68
2023-06-17T03:48:08.909Z,16.79
2023-06-17T03:51:14.135Z,16.85
2023-06-17T03:54:16.268Z,16.95
2023-06-17T03:57:19.516Z,16.99
2023-06-17T04:00:23.249Z,17.04
2023-06-17T04:03:26.533Z,17.06
2023-06-17T04:06:30.206Z,17.11
2023-06-17T04:09:32.844Z,17.09
2023-06-17T04:12:39.106Z,17.16
2023-06-17T04:15:42.477Z,17.12
2023-06-17T04:18:45.781Z,17.20
2023-06-17T04:21:49.986Z,17.24
2023-06-17T04:24:57.733Z,17.39
2023-06-17T04:28:02.644Z,17.55
2023-06-17T04:31:06.073Z,17.65
2023-06-17T04:34:08.915Z,17.58
2023-06-17T04:37:11.157Z,17.67
2023-06-17T04:40:14.445Z,17.74
2023-06-17T04:43:16.522Z,17.85
2023-06-17T04:46:20.573Z,17.93
2023-06-17T04:49:23.802Z,18.06
2023-06-17T04:52:27.048Z,17.93
2023-06-17T04:55:29.818Z,18.03
2023-06-17T04:58:31.844Z,18.00
2023-06-17T05:01:35.343Z,17.99
2023-06-17T05:04:37.370Z,18.09
2023-06-17T05:07:39.730Z,18.23
2023-06-17T05:10:41.639Z,18.37
2023-06-17T05:13:43.861Z,18.43
2023-06-17T05:16:46.895Z,18.31
2023-06-17T05:19:51.037Z,18.28
2023-06-17T05:22:53.118Z,18.39
2023-06-17T05:25:55.311Z,18.47
2023-06-17T05:28:58.342Z,18.51
2023-06-17T05:32:01.927Z,18.60
2023-06-17T05:35:04.387Z,18.66
2023-06-17T05:38:09.042Z,18.59
2023-06-17T05:41:11.207Z,18.69
2023-06-17T05:44:13.314Z,18.77
2023-06-17T05:47:15.409Z,18.81
2023-06-17T05:50:18.143Z,18.91
2023-06-17T05:53:22.530Z,18.82
2023-06-17T05:56:24.729Z,18.78
2023-06-17T05:59:29.963Z,18.94
2023-06-17T06:02:32.001Z,18.96
2023-06-17T06:05:34.013Z,19.04
2023-06-17T06:08:36.530Z,18.98
2023-06-17T06:11:38.627Z,18.96
2023-06-17T06:14:41.504Z,19.11
2023-06-17T06:17:45.608Z,19.24
2023-06-17T06:20:50.261Z,19.92
2023-06-17T06:23:53.934Z,21.78
2023-06-17T06:26:58.717Z,23.42
2023-06-17T06:30:01.403Z,23.67
2023-06-17T06:33:05.116Z,24.00
2023-06-17T06:36:11.547Z,23.77
2023-06-17T06:39:15.259Z,23.73
2023-06-17T06:42:17.892Z,23.21
2023-06-17T06:45:21.364Z,21.81
2023-06-17T06:48:29.594Z,21.85
2023-06-17T06:51:32.451Z,21.06
2023-06-17T06:54:34.734Z,20.82
2023-06-17T06:57:37.274Z,20.89
2023-06-17T07:00:40.837Z,20.96
2023-06-17T07:03:45.552Z,20.99
2023-06-17T07:06:47.974Z,20.79
2023-06-17T07:09:51.242Z,21.35
2023-06-17T07:12:53.571Z,21.25
2023-06-17T07:15:55.642Z,21.07
2023-06-17T07:18:57.862Z,20.70
2023-06-17T07:22:00.171Z,20.82
2023-06-17T07:25:02.638Z,21.57
2023-06-17T07:28:05.046Z,21.85
2023-06-17T07:31:07.921Z,23.08
2023-06-17T07:34:10.071Z,23.24
2023-06-17T07:37:12.057Z,23.31
2023-06-17T07:40:14.833Z,24.52
2023-06-17T07:43:17.227Z,22.62
2023-06-17T07:46:19.780Z,23.05
2023-06-17T07:49:22.042Z,22.82
2023-06-17T07:52:25.177Z,24.15
2023-06-17T07:55:27.905Z,22.73
2023-06-17T07:58:29.866Z,23.49
2023-06-17T08:01:33.699Z,24.00
2023-06-17T08:04:36.039Z,24.90
2023-06-17T08:07:38.147Z,24.77
2023-06-17T08:10:40.354Z,25.14
2023-06-17T08:13:42.294Z,25.42
2023-06-17T08:16:48.222Z,24.30
2023-06-17T08:19:50.303Z,23.55
2023-06-17T08:22:52.647Z,23.32
2023-06-17T08:25:54.813Z,23.22
2023-06-17T08:28:56.858Z,23.13
2023-06-17T08:31:59.177Z,23.29
2023-06-17T08:35:06.679Z,22.97
2023-06-17T08:38:08.519Z,23.05
2023-06-17T08:41:10.750Z,23.45
2023-06-17T08:44:14.945Z,23.03
2023-06-17T08:47:17.955Z,22.81
2023-06-17T08:50:20.572Z,22.79
2023-06-17T08:53:24.885Z,22.48
2023-06-17T08:56:26.840Z,22.80
2023-06-17T08:59:50.291Z,22.86
2023-06-17T09:02:56.027Z,23.00
2023-06-17T09:05:59.075Z,22.79
2023-06-17T09:09:01.922Z,22.92
2023-06-17T09:12:09.848Z,22.81
2023-06-17T09:15:21.784Z,22.42
2023-06-17T09:18:24.349Z,22.58
2023-06-17T09:21:28.347Z,22.69
2023-06-17T09:24:32.256Z,22.63
2023-06-17T09:27:35.211Z,22.78
2023-06-17T09:30:38.603Z,23.21
2023-06-17T09:33:44.969Z,23.31
2023-06-17T09:36:53.468Z,23.37
2023-06-17T09:39:56.120Z,23.54
2023-06-17T09:43:16.327Z,23.46
2023-06-17T09:46:31.163Z,23.44
2023-06-17T09:49:36.256Z,23.40
2023-06-17T09:52:39.537Z,23.29
2023-06-17T09:55:44.841Z,23.26
2023-06-17T09:58:48.818Z,23.09
2023-06-17T10:01:52.026Z,23.76
2023-06-17T10:04:55.194Z,23.70
2023-06-17T10:07:59.086Z,22.95
2023-06-17T10:11:02.251Z,23.51
2023-06-17T10:14:09.256Z,23.48
2023-06-17T10:17:12.809Z,23.59
2023-06-17T10:20:16.905Z,23.24
2023-06-17T10:23:23.489Z,23.87
2023-06-17T10:26:25.825Z,23.52
2023-06-17T10:29:28.815Z,23.75
2023-06-17T10:32:31.605Z,24.18
2023-06-17T10:35:40.982Z,23.93
2023-06-17T10:38:53.359Z,24.23
2023-06-17T10:42:03.974Z,24.01
2023-06-17T10:45:14.043Z,24.75
2023-06-17T10:48:25.196Z,24.68
2023-06-17T10:54:36.467Z,24.83
2023-06-17T10:57:38.726Z,24.55
2023-06-17T11:00:40.913Z,24.76
2023-06-17T11:03:43.255Z,24.56
2023-06-17T11:06:49.286Z,24.78
2023-06-17T11:09:54.578Z,24.93
2023-06-17T11:12:57.179Z,24.69
2023-06-17T11:16:03.433Z,24.32
2023-06-17T11:19:10.798Z,24.23
2023-06-17T11:22:14.490Z,24.28
2023-06-17T11:25:20.903Z,24.48
2023-06-17T11:28:28.937Z,25.03
2023-06-17T11:31:37.394Z,24.66
2023-06-17T11:34:43.152Z,24.62
2023-06-17T11:37:48.196Z,24.73
2023-06-17T11:40:56.907Z,25.18
2023-06-17T11:43:59.544Z,25.27
2023-06-17T11:47:10.422Z,24.93
2023-06-17T11:50:13.269Z,24.44
2023-06-17T11:53:15.730Z,24.55
2023-06-17T11:56:21.631Z,24.14
2023-06-17T11:59:24.571Z,24.08
2023-06-17T12:02:35.393Z,24.47
2023-06-17T12:05:39.697Z,23.93
2023-06-17T12:08:44.202Z,24.41
2023-06-17T12:11:47.231Z,24.69
2023-06-17T12:14:50.430Z,24.83
2023-06-17T12:17:52.800Z,24.81
2023-06-17T12:20:56.502Z,24.70
2023-06-17T12:23:58.864Z,24.75
2023-06-17T12:27:01.811Z,24.76
2023-06-17T12:30:06.047Z,24.80
2023-06-17T12:33:08.509Z,24.72
2023-06-17T12:36:11.435Z,24.24
2023-06-17T12:39:13.824Z,24.39
2023-06-17T12:42:18.507Z,24.74
2023-06-17T12:45:22.336Z,24.65
2023-06-17T12:48:26.495Z,24.10
2023-06-17T12:51:29.684Z,24.15
2023-06-17T12:54:32.673Z,24.29
2023-06-17T12:57:35.373Z,24.50
2023-06-17T13:00:38.495Z,24.31
2023-06-17T13:03:41.592Z,24.17
2023-06-17T13:06:54.456Z,24.53
2023-06-17T13:09:59.087Z,24.70
2023-06-17T13:13:02.038Z,24.91
2023-06-17T13:16:05.628Z,24.64
2023-06-17T13:19:09.723Z,24.54
2023-06-17T13:22:15.499Z,24.52
2023-06-17T13:25:23.056Z,25.06
2023-06-17T13:28:28.278Z,25.03
2023-06-17T13:31:31.158Z,24.76
2023-06-17T13:34:34.210Z,24.81
2023-06-17T13:37:37.423Z,25.20
2023-06-17T13:40:40.150Z,25.11
2023-06-17T13:43:48.441Z,24.88
2023-06-17T13:46:51.212Z,25.09
2023-06-17T13:49:53.991Z,25.11
2023-06-17T13:52:56.494Z,24.99
2023-06-17T13:56:02.401Z,25.03
2023-06-17T13:59:04.540Z,24.64
2023-06-17T14:02:19.342Z,25.22
2023-06-17T14:05:22.554Z,25.38
2023-06-17T14:08:25.689Z,24.89
2023-06-17T14:11:31.506Z,25.02
2023-06-17T14:14:34.041Z,25.53
2023-06-17T14:17:36.886Z,25.70
2023-06-17T14:20:43.896Z,25.45
2023-06-17T14:23:54.619Z,25.42
2023-06-17T14:27:15.705Z,25.48
2023-06-17T14:30:18.180Z,25.51
2023-06-17T14:33:21.965Z,25.55
2023-06-17T14:36:24.593Z,25.20
2023-06-17T14:39:27.181Z,25.07
2023-06-17T14:42:32.807Z,25.50
2023-06-17T14:45:35.600Z,25.51
2023-06-17T14:48:38.664Z,25.25
2023-06-17T14:51:41.849Z,25.53
2023-06-17T14:54:44.824Z,25.17
2023-06-17T14:57:47.862Z,25.02
2023-06-17T15:00:53.562Z,24.69
2023-06-17T15:04:00.104Z,24.98
2023-06-17T15:07:06.289Z,24.99
2023-06-17T15:10:09.638Z,25.25
2023-06-17T15:13:12.572Z,25.35
2023-06-17T15:16:16.786Z,25.36
2023-06-17T15:19:19.610Z,25.34
2023-06-17T15:22:25.696Z,25.29
2023-06-17T15:25:28.560Z,25.11
2023-06-17T15:28:31.144Z,25.17
2023-06-17T15:31:34.680Z,25.13
2023-06-17T15:34:37.304Z,25.07
2023-06-17T15:37:39.836Z,25.06
2023-06-17T15:40:42.268Z,25.22
2023-06-17T15:43:44.734Z,25.26
2023-06-17T15:46:47.693Z,25.25
2023-06-17T15:49:50.890Z,25.31
2023-06-17T15:52:53.541Z,25.14
2023-06-17T15:55:56.621Z,25.10
2023-06-17T15:59:01.633Z,24.86
2023-06-17T16:02:04.377Z,25.02
2023-06-17T16:05:07.188Z,24.75
2023-06-17T16:08:09.326Z,24.69
2023-06-17T16:11:11.895Z,24.81
2023-06-17T16:14:14.043Z,24.60
2023-06-17T16:17:16.466Z,24.87
2023-06-17T16:20:19.188Z,24.80
2023-06-17T16:23:22.056Z,24.97
2023-06-17T16:26:25.337Z,24.63
2023-06-17T16:29:33.994Z,24.53
2023-06-17T16:32:36.330Z,24.55
2023-06-17T16:35:42.176Z,24.62
2023-06-17T16:38:44.356Z,24.63
2023-06-17T16:41:49.994Z,24.41
2023-06-17T16:44:52.361Z,24.17
2023-06-17T16:47:54.706Z,24.32
2023-06-17T16:50:56.869Z,24.32
2023-06-17T16:54:01.799Z,24.22
2023-06-17T16:57:06.931Z,24.09
2023-06-17T17:00:09.869Z,24.18
2023-06-17T17:03:12.421Z,24.17
2023-06-17T17:06:14.684Z,24.20
2023-06-17T17:09:16.783Z,24.15
2023-06-17T17:12:18.931Z,24.16
2023-06-17T17:15:22.774Z,24.00
2023-06-17T17:18:28.819Z,24.01
2023-06-17T17:21:31.042Z,23.95
2023-06-17T17:24:33.336Z,23.90
2023-06-17T17:27:35.461Z,23.87
2023-06-17T17:30:38.155Z,23.89
2023-06-17T17:33:40.411Z,23.79
2023-06-17T17:36:42.964Z,23.71
2023-06-17T17:39:46.876Z,23.66
2023-06-17T17:42:53.745Z,23.56
2023-06-17T17:45:56.571Z,23.48
2023-06-17T17:48:59.542Z,23.44
2023-06-17T17:52:02.949Z,23.25
2023-06-17T17:55:05.822Z,23.31
2023-06-17T17:58:08.515Z,23.25
2023-06-17T18:01:10.952Z,23.24
2023-06-17T18:04:16.998Z,23.21
2023-06-17T18:07:22.685Z,23.11
2023-06-17T18:10:25.288Z,22.97
2023-06-17T18:13:28.554Z,23.09
2023-06-17T18:16:31.685Z,23.02
2023-06-17T18:19:34.116Z,22.91
2023-06-17T18:22:38.307Z,22.92
2023-06-17T18:25:40.983Z,22.88
2023-06-17T18:28:43.645Z,22.83
2023-06-17T18:31:46.404Z,22.77
2023-06-17T18:34:49.677Z,22.76
2023-06-17T18:37:52.145Z,22.68
2023-06-17T18:40:54.530Z,22.62
2023-06-17T18:43:56.960Z,22.54
2023-06-17T18:47:01.351Z,22.52
2023-06-17T18:50:04.288Z,22.49
2023-06-17T18:53:06.699Z,22.49
2023-06-17T18:56:09.264Z,22.44
2023-06-17T18:59:12.130Z,22.37
2023-06-17T19:02:14.446Z,22.34
2023-06-17T19:05:16.952Z,22.32
2023-06-17T19:08:19.614Z,22.29
2023-06-17T19:11:24.856Z,22.25
2023-06-17T19:14:27.929Z,22.16
2023-06-17T19:17:30.513Z,22.08
2023-06-17T19:20:33.278Z,21.99
2023-06-17T19:23:35.708Z,21.97
2023-06-17T19:26:38.383Z,21.94
2023-06-17T19:29:41.050Z,21.90
2023-06-17T19:32:43.659Z,21.86
2023-06-17T19:35:46.886Z,21.78
2023-06-17T19:38:49.843Z,21.77
2023-06-17T19:41:52.821Z,21.75
2023-06-17T19:44:58.256Z,21.72
2023-06-17T19:48:05.514Z,21.67
2023-06-17T19:51:08.418Z,21.65
2023-06-17T19:54:10.759Z,21.55
2023-06-17T19:57:13.315Z,21.45
2023-06-17T20:00:16.326Z,21.49
2023-06-17T20:03:18.844Z,21.46
2023-06-17T20:06:21.956Z,21.45
2023-06-17T20:09:25.223Z,21.47
2023-06-17T20:12:27.480Z,21.40
2023-06-17T20:15:31.028Z,21.40
2023-06-17T20:18:33.111Z,21.31
2023-06-17T20:21:35.446Z,21.27
2023-06-17T20:24:40.383Z,21.25
2023-06-17T20:27:44.993Z,21.12
2023-06-17T20:30:47.263Z,21.08
2023-06-17T20:33:50.139Z,21.03
2023-06-17T20:36:53.928Z,20.98
2023-06-17T20:39:57.272Z,20.93
2023-06-17T20:42:59.468Z,20.92
2023-06-17T20:46:03.016Z,20.96
2023-06-17T20:49:05.217Z,20.87
2023-06-17T20:52:08.034Z,20.85
2023-06-17T20:55:10.695Z,20.76
2023-06-17T20:58:13.249Z,20.77
2023-06-17T21:01:18.560Z,20.76
2023-06-17T21:04:23.808Z,20.54
2023-06-17T21:07:26.300Z,20.53
2023-06-17T21:10:30.156Z,20.44
2023-06-17T21:13:32.520Z,20.31
2023-06-17T21:16:35.622Z,20.35
2023-06-17T21:19:38.106Z,20.30
2023-06-17T21:22:40.353Z,20.32
2023-06-17T21:25:46.460Z,20.27
2023-06-17T21:28:48.893Z,20.25
2023-06-17T21:31:51.283Z,20.31
2023-06-17T21:34:53.646Z,20.31
2023-06-17T21:37:56.419Z,20.24
2023-06-17T21:40:58.968Z,20.18
2023-06-17T21:44:01.348Z,20.19
2023-06-17T21:47:03.816Z,20.13
2023-06-17T21:50:06.499Z,20.06
2023-06-17T21:53:08.557Z,20.15
2023-06-17T21:56:11.939Z,20.11
2023-06-17T21:59:15.624Z,20.06
2023-06-17T22:02:17.714Z,20.05
2023-06-17T22:05:19.698Z,20.05
2023-06-17T22:08:27.527Z,19.97
2023-06-17T22:11:36.360Z,19.94
2023-06-17T22:14:38.664Z,19.95
2023-06-17T22:17:41.226Z,19.88
2023-06-17T22:20:43.219Z,19.89
2023-06-17T22:23:45.478Z,19.90
2023-06-17T22:26:47.494Z,19.91
2023-06-17T22:29:49.745Z,19.90
2023-06-17T22:32:52.141Z,19.82
2023-06-17T22:35:54.107Z,19.50
2023-06-17T22:38:56.317Z,19.40
2023-06-17T22:41:58.410Z,19.25
2023-06-17T22:45:00.602Z,19.16
2023-06-17T22:48:03.944Z,19.01
2023-06-17T22:51:05.959Z,18.95
2023-06-17T22:54:08.148Z,18.96
2023-06-17T22:57:13.168Z,18.88
2023-06-17T23:00:15.675Z,18.88
2023-06-17T23:03:17.827Z,18.79
2023-06-17T23:06:20.028Z,18.89
2023-06-17T23:09:22.496Z,18.79
2023-06-17T23:12:24.901Z,18.87
2023-06-17T23:15:27.156Z,18.83
2023-06-17T23:18:29.530Z,18.94
2023-06-17T23:21:34.143Z,18.83
2023-06-17T23:24:36.986Z,18.87
2023-06-17T23:27:39.154Z,19.01
2023-06-17T23:30:41.357Z,18.98
2023-06-17T23:33:44.221Z,18.91
2023-06-17T23:36:46.532Z,19.01
2023-06-17T23:39:49.049Z,19.01
2023-06-17T23:42:51.771Z,18.93
2023-06-17T23:45:56.162Z,19.01
2023-06-17T23:48:58.517Z,18.99
2023-06-17T23:52:02.956Z,18.99
2023-06-17T23:55:05.445Z,18.92
2023-06-17T23:58:07.407Z,18.95
